Login to view Products
 
Tuesday, June 15, 2021 (15:03 UTC) 15
Ras Al Khaimah International Airport
ICAO: OMRK
IATA: RKT
  • METAR OMRK 151500Z 29008KT 8000 NSC 35/24 Q0996 A2942=
  • TAF OMRK 151100Z 1512/1618 30010KT 5000 HZ NSC BECMG 1515/1517 18005KT 8000 NSW BECMG 1606/1608 30010KT BECMG 1615/1617 VRB02KT=

2